Skip to main content.
Our real time weather data display below is updated continuously via our 24/7 live data feed.
 TIME   TEMPERATURE   WINDSPEED   DIRECTION   HUMIDITY   BAROMETER   RAINFALL 
9:20 14.0°C (57.2°F) 27.8 kmh (17.3 mph) SSE 82% 1028.1hPa (30.36 inHg) 0.0mm (0.00 in.)
8:20 13.0°C (55.4 °F) 22.2 kmh (13.8 mph) SSE 81% 1027.1hPa (30.33 inHg) 0.0mm (0.00 in.)
7:20 13.0°C (55.4 °F) 24.1 kmh (15.0 mph) SSE 76% 1027.1hPa (30.33 inHg) 0.0mm (0.00 in.)
6:20 13.0°C (55.4 °F) 29.6 kmh (18.4 mph) SSE 76% 1026.1hPa (30.30 inHg) 0.0mm (0.00 in.)
5:20 13.0°C (55.4 °F) 27.8 kmh (17.3 mph) SE 76% 1025.1hPa (30.27 inHg) 0.0mm (0.00 in.)
4:20 12.0°C (53.6 °F) 25.9 kmh (16.1 mph) SE 81% 1025.1hPa (30.27 inHg) 0.0mm (0.00 in.)
3:20 12.0°C (53.6 °F) 24.1 kmh (15.0 mph) SSE 87% 1025.1hPa (30.27 inHg) 0.0mm (0.00 in.)
2:20 12.0°C (53.6 °F) 18.5 kmh (11.5 mph) SSE 87% 1025.1hPa (30.27 inHg) 0.0mm (0.00 in.)
1:20 10.0°C (50.0 °F) 13.0 kmh (8.1 mph) SSE 87% 1025.1hPa (30.27 inHg) 0.0mm (0.00 in.)
0:20 9.0°C (48.2 °F) 14.8 kmh (9.2 mph) SSE 87% 1025.1hPa (30.27 inHg) 0.0mm (0.00 in.)
23:20 10.0°C (50.0 °F) 13.0 kmh (8.1 mph) S 87% 1025.1hPa (30.27 inHg) 0.0mm (0.00 in.)
22:20 11.0°C (51.8 °F) 9.3 kmh (5.8 mph) S 87% 1024.0hPa (30.24 inHg) 0.0mm (0.00 in.)
21:20 11.0°C (51.8 °F) 9.3 kmh (5.8 mph) SSE 87% 1024.0hPa (30.24 inHg) 0.0mm (0.00 in.)
20:20 12.0°C (53.6 °F) 7.4 kmh (4.6 mph) SE 81% 1024.0hPa (30.24 inHg) 0.0mm (0.00 in.)
19:20 12.0°C (53.6 °F) 5.6 kmh (3.5 mph) ESE 76% 1023.0hPa (30.21 inHg) 0.0mm (0.00 in.)
18:20 13.0°C (55.4 °F) 3.7 kmh (2.3 mph) SE 71% 1022.0hPa (30.18 inHg) 0.0mm (0.00 in.)
17:20 14.0°C (57.2 °F) 5.6 kmh (3.5 mph) SW 67% 1022.0hPa (30.18 inHg) 0.0mm (0.00 in.)
16:20 16.0°C (60.8 °F) 5.6 kmh (3.5 mph) W 55% 1022.0hPa (30.18 inHg) 0.0mm (0.00 in.)
15:20 16.0°C (60.8 °F) 11.1 kmh (6.9 mph) W 58% 1022.0hPa (30.18 inHg) 0.0mm (0.00 in.)
14:20 16.0°C (60.8 °F) 14.8 kmh (9.2 mph) WNW 58% 1022.0hPa (30.18 inHg) 0.0mm (0.00 in.)
13:20 16.0°C (60.8 °F) 16.7 kmh (10.4 mph) WNW 63% 1022.0hPa (30.18 inHg) 0.0mm (0.00 in.)
12:20 14.0°C (57.2 °F) 14.8 kmh (9.2 mph) NW 67% 1023.0hPa (30.21 inHg) 0.0mm (0.00 in.)
11:20 15.0°C (59.0 °F) 13.0 kmh (8.1 mph) WNW 72% 1023.0hPa (30.21 inHg) 0.0mm (0.00 in.)
10:20 14.0°C (57.2 °F) 13.0 kmh (8.1 mph) NW 71% 1023.0hPa (30.21 inHg) 0.0mm (0.00 in.)